Augusta Regional At Bush Field
KAGS : now visible

Airfield :











YOU CAN JOIN US ON...

 
LOGIN :

Register | Disclaimer

   EN    FR    IT 

 









Legend :    VFR   Marginal VFR   IFR   Intensive IFR   Very Intensive IFR
Visi :
Ceiling :
>= 8 km
>= 3000ft
5 to 8 km
1000 to 3000 ft
1500m to 5 km
500 to 1000 ft
800 to 1500m
200 to 500 ft
< 800m
< 200 ft
Symbols :   Thunderstorms  Fog  Heavy snow  Heavy precipitations  Wind > 20 kt






- Airport Elevation : 144 ft
- IATA code : AGS


KAGS - Augusta Regional At Bush Field

CURRENT METAR :
  • 160004Z 30003KT 8SM FEW010 BKN029 BKN060 08/08 A2973 RMK AO2 T00830078

EXPIRED METARs :
  • 152353Z 33004KT 7SM FEW038 FEW060 SCT080 07/06 A2972 RMK AO2 SLP065 T00720061 10133 20072 53010
  • 152253Z 00000KT 10SM CLR 09/08 A2971 RMK AO2 SLP060 T00940078
  • 152153Z 13005KT 10SM SCT026 13/08 A2969 RMK AO2 SLP055 T01280083

TAF KAGS
Valid from the 16 at 00:00 until the 17 at 00:00 UTC


152341Z 1600/1624 28006KT P6SM SKC
TEMPO 1600/1602 2SM BR
FM161400 25015G23KT P6SM SCT035
FM162200 27010G16KT P6SM SKC
KZTL FIR / North America



MET'MAP, your aeronautical weather chart ! - Copyright ORBIFLY December 2007 - Disclaimer

ORBIFLY MET'MAP TEAM :

Programming & Development : Alexandra Zaïnal
Concept & original design : Baudouin d'Aumeries
Assistance for programming : Marc-Olivier Méhu
Technical & hardware support : Manuel Goepfert

Contact : metmap@orbifly.com




SOURCES & CREDITS :

   NOAA       Earth
Advisory